Flight Track Log - Related Links

Times and Time Zones

All times are in EDT time to prevent confusion due to time zone crossing. See the ASQ5574 flight status page for this flight to view local times or setup timezone preferences in your user account.

Time Position Orientation Groundspeed Altitude Reporting Facility
EDT Latitude Longitude Course Direction KTS MPH feet Rate Location/Type
Mon 06:00:43 PM 40.6525 -89.6703 173° South 151 174 3,000  Level Kansas City Center
Mon 06:01:47 PM 40.6250 -89.6075 120° Southeast 185 213 5,100 2,352 Climbing Kansas City Center
Mon 06:02:48 PM 40.5692 -89.5628 149° Southeast 225 259 7,900 2,565 Climbing Kansas City Center
Mon 06:03:51 PM 40.4844 -89.5442 171° South 252 290 10,400 2,371 Climbing Kansas City Center
Mon 06:04:52 PM 40.4072 -89.4994 156° South 294 338 12,800 2,000 Climbing Chicago Center
Mon 06:05:54 PM 40.3278 -89.4417 151° Southeast 319 367 14,500 1,694 Climbing Chicago Center
Mon 06:06:00 PM 40.1597 -89.2738 173° South  Level Estimated
Mon 06:06:56 PM 40.2511 -89.3614 141° Southeast 348 400 16,300  Level Chicago Center
Mon 06:07:58 PM 40.1617 -89.3058 155° Southeast 361 415 18,600 1,887 Climbing Chicago Center
Mon 06:09:00 PM 40.0717 -89.2506 155° Southeast 354 407 20,200 1,714 Climbing Kansas City Center
Mon 06:10:04 PM 39.9608 -89.1853 156° South 361 415 22,200 1,790 Climbing Kansas City Center
Mon 06:11:04 PM 39.8700 -89.1333 156° South 361 415 23,900 1,452 Climbing Kansas City Center
Mon 06:12:08 PM 39.7806 -89.0808 156° South 356 410 25,200 1,104 Climbing Kansas City Center
Mon 06:13:09 PM 39.6889 -89.0283 156° South 356 410 26,200 885 Climbing Kansas City Center
Mon 06:14:10 PM 39.5953 -88.9736 156° South 360 414 27,000 384 Climbing Kansas City Center
Mon 06:15:14 PM 39.5017 -88.9186 156° South 366 421 27,000  Level Kansas City Center
Mon 06:16:14 PM 39.3967 -88.8478 152° Southeast 371 427 27,000  Level Kansas City Center
Mon 06:17:16 PM 39.3044 -88.7831 151° Southeast 371 427 27,000  Level Kansas City Center
Mon 06:18:19 PM 39.2103 -88.7169 151° Southeast 380 437 27,000  Level Kansas City Center
Mon 06:19:20 PM 39.1153 -88.6503 151° Southeast 383 441 27,000  Level Kansas City Center
Mon 06:20:24 PM 39.0089 -88.5789 152° Southeast 386 444 27,000  Level Kansas City Center
Mon 06:21:24 PM 38.9153 -88.5119 151° Southeast 387 445 27,000  Level Kansas City Center
Mon 06:22:27 PM 38.8172 -88.4464 152° Southeast 388 447 27,000  Level Kansas City Center
Mon 06:23:28 PM 38.7211 -88.3789 151° Southeast 390 449 27,000  Level Kansas City Center
Mon 06:24:32 PM 38.6025 -88.2992 152° Southeast 395 455 27,000  Level Kansas City Center
Mon 06:25:32 PM 38.5031 -88.2328 152° Southeast 399 459 27,000  Level Kansas City Center
Mon 06:26:34 PM 38.4036 -88.1658 152° Southeast 400 460 27,000  Level Kansas City Center
Mon 06:27:32 PM 38.3050 -88.1003 152° Southeast 400 460 27,000  Level Indianapolis Center
Mon 06:28:34 PM 38.2050 -88.0319 152° Southeast 403 464 27,000  Level Indianapolis Center
Mon 06:29:36 PM 38.1044 -87.9653 152° Southeast 403 464 27,000  Level Indianapolis Center
Mon 06:30:38 PM 38.0047 -87.8986 152° Southeast 404 465 27,000  Level Indianapolis Center
Mon 06:31:40 PM 37.9056 -87.8333 153° Southeast 404 465 27,000  Level Indianapolis Center
Mon 06:32:42 PM 37.7864 -87.7539 152° Southeast 403 464 27,000  Level Indianapolis Center
Mon 06:33:44 PM 37.6917 -87.6897 152° Southeast 399 459 27,000  Level Indianapolis Center
Mon 06:34:46 PM 37.5931 -87.6258 153° Southeast 398 458 27,000  Level Indianapolis Center
Mon 06:35:49 PM 37.4953 -87.5608 152° Southeast 396 456 27,000  Level Indianapolis Center
Mon 06:36:51 PM 37.3958 -87.4947 152° Southeast 396 456 27,000  Level Indianapolis Center
Mon 06:37:53 PM 37.2711 -87.4156 153° Southeast 421 484 27,000  Level Indianapolis Center
Mon 06:38:55 PM 37.1614 -87.3428 152° Southeast 437 503 27,000  Level Indianapolis Center
Mon 06:39:29 PM 37.1061 -87.3064 152° Southeast 437 503 27,000  Level Memphis Center
Mon 06:40:31 PM 36.9944 -87.2339 153° Southeast 442 509 27,000  Level Memphis Center
Mon 06:41:33 PM 36.8750 -87.1997 167° South 438 504 27,000  Level Memphis Center
Mon 06:42:35 PM 36.7353 -87.1819 174° South 434 499 27,000  Level Memphis Center
Mon 06:43:37 PM 36.6169 -87.2092 190° South 431 496 27,000  Level Memphis Center
Mon 06:44:39 PM 36.4994 -87.2378 191° South 429 494 27,000  Level Memphis Center
Mon 06:45:41 PM 36.3911 -87.1769 156° South 444 511 27,000  Level Memphis Center
Mon 06:46:43 PM 36.2933 -87.0742 140° Southeast 460 529 27,000  Level Memphis Center
Mon 06:47:45 PM 36.1797 -86.9567 140° Southeast 460 529 27,000  Level Memphis Center
Mon 06:48:47 PM 36.0811 -86.8544 140° Southeast 460 529 27,000  Level Memphis Center
Mon 06:49:49 PM 35.9808 -86.7514 140° Southeast 461 531 27,000  Level Memphis Center
Mon 06:50:51 PM 35.8806 -86.6494 141° Southeast 462 532 27,000  Level Memphis Center
Mon 06:51:53 PM 35.7794 -86.5461 140° Southeast 464 534 27,000  Level Memphis Center
Mon 06:52:54 PM 35.6786 -86.4425 140° Southeast 465 535 27,000  Level Memphis Center
Mon 06:53:56 PM 35.5769 -86.3394 140° Southeast 466 536 27,000  Level Memphis Center
Mon 06:54:58 PM 35.4586 -86.2200 141° Southeast 467 537 27,000  Level Memphis Center
Mon 06:56:00 PM 35.3578 -86.1175 140° Southeast 467 537 27,000  Level Memphis Center
Mon 06:57:02 PM 35.2567 -86.0172 141° Southeast 467 537 27,000  Level Memphis Center
Mon 06:58:04 PM 35.1561 -85.9144 140° Southeast 468 539 27,000  Level Memphis Center
Mon 06:59:06 PM 35.0539 -85.8164 142° Southeast 468 539 27,000  Level Memphis Center
Mon 07:00:25 PM 34.8997 -85.6950 147° Southeast 464 534 27,000  Level Atlanta Center
Mon 07:01:25 PM 34.7922 -85.6119 148° Southeast 464 534 27,000  Level Atlanta Center
Mon 07:02:25 PM 34.6828 -85.5267 147° Southeast 464 534 27,000 -800 Level Atlanta Center
Mon 07:03:25 PM 34.5731 -85.4414 147° Southeast 464 534 25,400 -2,000 Descending Atlanta Center
Mon 07:04:25 PM 34.4697 -85.3592 147° Southeast 464 534 23,000 -2,400 Descending Atlanta Center
Mon 07:05:25 PM 34.3722 -85.2844 148° Southeast 442 509 20,600 -2,350 Descending Atlanta Center
Mon 07:06:25 PM 34.2750 -85.2103 148° Southeast 414 476 18,300 -2,250 Descending Atlanta Center
Mon 07:07:25 PM 34.1858 -85.1386 146° Southeast 402 463 16,100 -2,150 Descending Atlanta Center
Mon 07:08:25 PM 34.1075 -85.0472 136° Southeast 388 447 14,000 -1,050 Descending Atlanta Center
Mon 07:09:25 PM 34.0350 -84.9536 133° Southeast 383 441 14,000  Level Atlanta Center
Mon 07:10:25 PM 33.9606 -84.8603 134° Southeast 383 441 14,000  Level Atlanta Center
Mon 07:11:25 PM 33.8903 -84.7769 135° Southeast 367 422 14,000 -550 Level Atlanta Center
Mon 07:12:25 PM 33.8300 -84.7039 135° Southeast 324 373 12,900 -1,176 Descending Atlanta Center
Mon 07:13:07 PM 33.7833 -84.6500 136° Southeast 297 342 12,000 -867 Descending Atlanta TRACON
Mon 07:15:25 PM 33.7308 -84.4533 108° East 278 320 10,300 -1,121 Descending Atlanta Center
Mon 07:16:25 PM 33.7311 -84.3586 90° East 278 320 8,300 -2,118 Descending Atlanta Center
Mon 07:17:07 PM 33.7333 -84.3000 87° East 268 308 6,700 -2,176 Descending Atlanta TRACON
Mon 07:18:07 PM 33.7333 -84.2167 90° East 260 299 4,600 -1,850 Descending Atlanta TRACON
Mon 07:19:07 PM 33.6667 -84.2000 168° South 248 285 3,000 -842 Descending Atlanta TRACON
Mon 07:20:01 PM 33.6500 -84.2500 248° West 186 214 3,000 -211 Level Atlanta TRACON
Mon 07:21:01 PM 33.6500 -84.3167 270° West 177 204 2,600 -619 Descending Atlanta TRACON
Mon 07:22:07 PM 33.6500 -84.3667 270° West 139 160 1,700 -818 Descending Atlanta TRACON
Mon 07:24:00 PM 33.6333 -84.4167 265° West  Level FlightAware Approximate
Mon 07:31:00 PM 33.6367 -84.4279 265° West  Level Estimated

Login

Don't have an account? Register now (free) for customized features, flight alerts, and more!